createdAt,value
2018-01-19T00:00:52.071Z,1.10
2018-01-19T00:01:52.048Z,1.90
2018-01-19T00:02:52.057Z,1.00
2018-01-19T00:03:52.060Z,1.00
2018-01-19T00:04:52.065Z,1.00
2018-01-19T00:05:52.069Z,1.00
2018-01-19T00:06:52.076Z,1.00
2018-01-19T00:07:52.082Z,1.30
2018-01-19T00:08:53.083Z,1.20
2018-01-19T00:09:52.092Z,1.00
2018-01-19T00:10:52.098Z,1.10
2018-01-19T00:11:52.107Z,1.10
2018-01-19T00:12:52.106Z,1.00
2018-01-19T00:13:52.113Z,2.10
2018-01-19T00:14:52.120Z,1.30
2018-01-19T00:15:52.125Z,1.20
2018-01-19T00:16:52.129Z,1.10
2018-01-19T00:17:52.136Z,1.10
2018-01-19T00:18:52.140Z,1.70
2018-01-19T00:19:52.147Z,1.00
2018-01-19T00:20:52.151Z,1.00
2018-01-19T00:21:52.156Z,1.00
2018-01-19T00:22:52.161Z,1.00
2018-01-19T00:23:52.167Z,1.00
2018-01-19T00:24:52.177Z,1.00
2018-01-19T00:25:52.176Z,1.80
2018-01-19T00:26:52.192Z,1.00
2018-01-19T00:27:52.189Z,1.10
2018-01-19T00:28:52.190Z,1.00
2018-01-19T00:29:52.197Z,1.20
2018-01-19T00:30:52.202Z,1.00
2018-01-19T00:31:52.211Z,1.00
2018-01-19T00:32:52.212Z,1.00
2018-01-19T00:33:52.217Z,1.10
2018-01-19T00:34:52.222Z,2.00
2018-01-19T00:35:52.230Z,1.00
2018-01-19T00:36:52.232Z,1.10
2018-01-19T00:37:52.238Z,1.10
2018-01-19T00:38:52.243Z,1.00
2018-01-19T00:39:52.250Z,1.20
2018-01-19T00:40:52.252Z,1.10
2018-01-19T00:41:52.257Z,1.10
2018-01-19T00:42:52.264Z,1.50
2018-01-19T00:43:52.270Z,1.30
2018-01-19T00:44:52.275Z,1.10
2018-01-19T00:45:52.283Z,1.30
2018-01-19T00:46:52.285Z,2.70
2018-01-19T00:47:52.289Z,1.30
2018-01-19T00:48:52.293Z,1.30
2018-01-19T00:49:52.302Z,1.10
2018-01-19T00:50:52.309Z,1.20
2018-01-19T00:51:52.310Z,1.20
2018-01-19T00:52:52.313Z,1.20
2018-01-19T00:53:52.321Z,1.20
2018-01-19T00:54:52.326Z,1.00
2018-01-19T00:55:52.330Z,1.20
2018-01-19T00:56:52.335Z,1.10
2018-01-19T00:57:52.340Z,1.70
2018-01-19T00:58:52.344Z,1.90
2018-01-19T00:59:52.351Z,1.00
2018-01-19T01:00:52.355Z,1.20
2018-01-19T01:01:52.357Z,1.10
2018-01-19T01:02:52.366Z,1.20
2018-01-19T01:03:52.370Z,1.00
2018-01-19T01:04:52.375Z,1.00
2018-01-19T01:05:52.379Z,1.00
2018-01-19T01:06:52.387Z,1.00
2018-01-19T01:07:52.391Z,1.00
2018-01-19T01:08:52.396Z,1.00
2018-01-19T01:09:52.400Z,1.00
2018-01-19T01:10:52.411Z,1.10
2018-01-19T01:11:52.413Z,1.00
2018-01-19T01:12:52.416Z,1.00
2018-01-19T01:13:52.421Z,1.20
2018-01-19T01:14:52.428Z,1.00
2018-01-19T01:15:52.432Z,1.70
2018-01-19T01:16:52.440Z,1.10
2018-01-19T01:17:52.447Z,1.10
2018-01-19T01:18:52.454Z,1.00
2018-01-19T01:19:52.452Z,1.10
2018-01-19T01:20:52.457Z,1.00
2018-01-19T01:21:52.463Z,1.10
2018-01-19T01:22:52.467Z,1.10
2018-01-19T01:23:52.474Z,1.00
2018-01-19T01:24:52.478Z,1.80
2018-01-19T01:25:52.485Z,1.00
2018-01-19T01:26:52.490Z,1.00
2018-01-19T01:27:52.493Z,1.00
2018-01-19T01:28:52.500Z,1.00
2018-01-19T01:29:52.504Z,1.00
2018-01-19T01:30:52.511Z,1.00
2018-01-19T01:31:52.516Z,1.00
2018-01-19T01:32:52.520Z,1.10
2018-01-19T01:33:52.528Z,1.10
2018-01-19T01:34:52.533Z,1.00
2018-01-19T01:35:52.539Z,1.00
2018-01-19T01:36:52.543Z,1.00
2018-01-19T01:37:52.548Z,2.00
2018-01-19T01:38:52.554Z,1.10
2018-01-19T01:39:52.559Z,1.10
2018-01-19T01:40:52.562Z,1.30
2018-01-19T01:41:52.568Z,1.00
2018-01-19T01:42:52.575Z,1.10
2018-01-19T01:43:52.578Z,1.50
2018-01-19T01:44:52.583Z,1.50
2018-01-19T01:45:52.587Z,1.00
2018-01-19T01:46:52.596Z,1.00
2018-01-19T01:47:52.599Z,1.00
2018-01-19T01:48:52.603Z,1.00
2018-01-19T01:49:52.611Z,1.20
2018-01-19T01:50:52.614Z,1.00
2018-01-19T01:51:52.620Z,1.20
2018-01-19T01:52:52.624Z,1.00
2018-01-19T01:53:52.629Z,1.00
2018-01-19T01:54:52.635Z,1.60
2018-01-19T01:55:52.639Z,1.10
2018-01-19T01:56:52.644Z,1.10
2018-01-19T01:57:52.648Z,1.40
2018-01-19T01:58:52.653Z,1.30
2018-01-19T01:59:52.659Z,1.00
2018-01-19T02:00:52.662Z,1.10
2018-01-19T02:01:52.674Z,1.50
2018-01-19T02:02:52.673Z,1.00
2018-01-19T02:03:52.677Z,1.10
2018-01-19T02:04:52.681Z,1.00
2018-01-19T02:05:52.686Z,1.00
2018-01-19T02:06:52.691Z,1.00
2018-01-19T02:07:52.696Z,1.00
2018-01-19T02:08:52.700Z,2.70
2018-01-19T02:09:52.709Z,1.00
2018-01-19T02:10:52.710Z,1.10
2018-01-19T02:11:52.717Z,1.00
2018-01-19T02:12:52.720Z,1.00
2018-01-19T02:13:52.724Z,1.00
2018-01-19T02:14:52.732Z,1.00
2018-01-19T02:15:52.736Z,1.00
2018-01-19T02:16:52.744Z,1.20
2018-01-19T02:17:52.744Z,1.10
2018-01-19T02:18:52.751Z,1.10
2018-01-19T02:19:52.759Z,1.00
2018-01-19T02:20:52.759Z,1.00
2018-01-19T02:21:52.765Z,1.10
2018-01-19T02:22:52.770Z,1.00
2018-01-19T02:23:52.785Z,1.80
2018-01-19T02:24:52.779Z,1.00
2018-01-19T02:25:52.784Z,1.00
2018-01-19T02:26:52.792Z,1.60
2018-01-19T02:27:52.795Z,1.10
2018-01-19T02:28:52.799Z,1.10
2018-01-19T02:29:52.804Z,1.10
2018-01-19T02:30:52.810Z,1.00
2018-01-19T02:31:52.816Z,1.10
2018-01-19T02:32:52.820Z,1.00
2018-01-19T02:33:52.825Z,1.00
2018-01-19T02:34:52.829Z,1.00
2018-01-19T02:35:52.835Z,1.00
2018-01-19T02:36:52.838Z,1.00
2018-01-19T02:37:52.844Z,1.00
2018-01-19T02:38:52.849Z,1.00
2018-01-19T02:39:52.855Z,1.10
2018-01-19T02:40:52.858Z,1.00
2018-01-19T02:41:52.864Z,1.00
2018-01-19T02:42:52.870Z,1.00
2018-01-19T02:43:52.872Z,1.00
2018-01-19T02:44:52.878Z,1.00
2018-01-19T02:45:52.884Z,1.60
2018-01-19T02:46:52.889Z,1.30
2018-01-19T02:47:52.894Z,1.00
2018-01-19T02:48:52.901Z,1.10
2018-01-19T02:49:52.904Z,1.10
2018-01-19T02:50:52.912Z,1.30
2018-01-19T02:51:52.915Z,1.20
2018-01-19T02:52:52.918Z,1.00
2018-01-19T02:53:52.923Z,1.00
2018-01-19T02:54:52.928Z,1.00
2018-01-19T02:55:52.933Z,1.00
2018-01-19T02:56:52.938Z,1.00
2018-01-19T02:57:52.944Z,1.00
2018-01-19T02:58:52.950Z,1.10
2018-01-19T02:59:52.954Z,1.20
2018-01-19T03:00:52.958Z,1.00
2018-01-19T03:01:52.962Z,1.00
2018-01-19T03:02:52.970Z,1.00
2018-01-19T03:03:52.973Z,1.10
2018-01-19T03:04:52.978Z,1.10
2018-01-19T03:05:52.993Z,1.10
2018-01-19T03:06:52.988Z,146.30
2018-01-19T03:07:52.994Z,333.60
2018-01-19T03:08:53.002Z,357.00
2018-01-19T03:09:53.007Z,218.20
2018-01-19T03:10:53.017Z,41.40
2018-01-19T03:11:53.017Z,1.60
2018-01-19T03:12:53.026Z,7.20
2018-01-19T03:13:53.024Z,49.60
2018-01-19T03:14:53.030Z,157.00
2018-01-19T03:15:53.036Z,1.50
2018-01-19T03:16:53.038Z,1.10
2018-01-19T03:17:53.046Z,1.10
2018-01-19T03:18:53.050Z,1.10
2018-01-19T03:19:53.053Z,1.40
2018-01-19T03:20:53.058Z,1.00
2018-01-19T03:21:53.066Z,1.10
2018-01-19T03:22:53.069Z,1.10
2018-01-19T03:23:53.074Z,1.10
2018-01-19T03:24:53.079Z,1.20
2018-01-19T03:25:53.084Z,1.00
2018-01-19T03:26:53.088Z,1.10
2018-01-19T03:27:53.093Z,1.10
2018-01-19T03:28:53.101Z,1.70
2018-01-19T03:29:53.103Z,1.00
2018-01-19T03:30:53.110Z,3.10
2018-01-19T03:31:53.113Z,25.30
2018-01-19T03:32:53.118Z,78.70
2018-01-19T03:33:53.128Z,66.40
2018-01-19T03:34:53.128Z,64.80
2018-01-19T03:35:53.132Z,26.20
2018-01-19T03:36:53.138Z,43.30
2018-01-19T03:37:53.142Z,98.20
2018-01-19T03:38:53.146Z,138.50
2018-01-19T03:39:53.153Z,85.10
2018-01-19T03:40:53.156Z,79.00
2018-01-19T03:41:53.160Z,109.50
2018-01-19T03:42:53.166Z,60.00
2018-01-19T03:43:53.171Z,10.50
2018-01-19T03:44:53.175Z,5.80
2018-01-19T03:45:53.180Z,1.20
2018-01-19T03:46:53.186Z,1.10
2018-01-19T03:47:53.190Z,1.00
2018-01-19T03:48:53.194Z,1.90
2018-01-19T03:49:53.200Z,1.00
2018-01-19T03:50:53.204Z,1.00
2018-01-19T03:51:53.210Z,1.00
2018-01-19T03:52:53.214Z,1.00
2018-01-19T03:53:53.220Z,1.00
2018-01-19T03:54:53.225Z,1.10
2018-01-19T03:55:53.230Z,1.10
2018-01-19T03:56:53.234Z,1.00
2018-01-19T03:57:53.239Z,1.10
2018-01-19T03:58:53.247Z,1.10
2018-01-19T03:59:53.252Z,1.00
2018-01-19T04:00:53.252Z,1.00
2018-01-19T04:01:53.259Z,1.00
2018-01-19T04:02:53.263Z,2.00
2018-01-19T04:03:53.269Z,1.10
2018-01-19T04:04:53.273Z,6.60
2018-01-19T04:05:53.278Z,3.30
2018-01-19T04:06:53.283Z,1.00
2018-01-19T04:07:53.288Z,1.00
2018-01-19T04:08:53.293Z,1.00
2018-01-19T04:09:53.302Z,1.00
2018-01-19T04:10:53.305Z,1.00
2018-01-19T04:11:53.309Z,1.00
2018-01-19T04:12:53.314Z,2.20
2018-01-19T04:13:53.320Z,1.00
2018-01-19T04:14:53.324Z,1.00
2018-01-19T04:15:53.330Z,1.00
2018-01-19T04:16:53.334Z,1.00
2018-01-19T04:17:53.340Z,1.00
2018-01-19T04:18:53.347Z,1.00
2018-01-19T04:19:53.354Z,1.00
2018-01-19T04:20:53.357Z,1.00
2018-01-19T04:21:53.363Z,1.00
2018-01-19T04:22:53.364Z,1.00
2018-01-19T04:23:53.372Z,1.00
2018-01-19T04:24:53.374Z,1.00
2018-01-19T04:25:53.380Z,1.00
2018-01-19T04:26:53.385Z,1.00
2018-01-19T04:27:53.389Z,1.00
2018-01-19T04:28:53.393Z,1.00
2018-01-19T04:29:53.399Z,1.00
2018-01-19T04:30:53.410Z,1.00
2018-01-19T04:31:53.410Z,1.00
2018-01-19T04:32:53.413Z,1.90
2018-01-19T04:33:53.417Z,1.00
2018-01-19T04:34:53.423Z,1.00
2018-01-19T04:35:53.428Z,1.00
2018-01-19T04:36:53.432Z,3.80
2018-01-19T04:37:53.438Z,1.10
2018-01-19T04:38:53.442Z,1.00
2018-01-19T04:39:53.447Z,1.00
2018-01-19T04:40:53.451Z,1.00
2018-01-19T04:41:53.456Z,1.00
2018-01-19T04:42:53.460Z,1.00
2018-01-19T04:43:53.465Z,1.00
2018-01-19T04:44:53.468Z,1.00
2018-01-19T04:45:53.474Z,1.00
2018-01-19T04:46:53.478Z,1.00
2018-01-19T04:47:53.485Z,1.00
2018-01-19T04:48:53.486Z,1.00
2018-01-19T04:49:53.492Z,1.00
2018-01-19T04:50:53.496Z,1.00
2018-01-19T04:51:53.500Z,1.00
2018-01-19T04:52:53.505Z,1.00
2018-01-19T04:53:53.511Z,1.00
2018-01-19T04:54:53.515Z,1.00
2018-01-19T04:55:53.518Z,1.10
2018-01-19T04:56:53.523Z,1.00
2018-01-19T04:57:53.526Z,1.00
2018-01-19T04:58:53.530Z,1.00
2018-01-19T04:59:53.535Z,1.10
2018-01-19T05:00:53.538Z,1.10
2018-01-19T05:01:53.544Z,1.00
2018-01-19T05:02:53.550Z,1.00
2018-01-19T05:03:53.552Z,1.90
2018-01-19T05:04:53.554Z,1.00
2018-01-19T05:05:53.560Z,1.00
2018-01-19T05:06:53.565Z,1.00
2018-01-19T05:07:53.567Z,1.00
2018-01-19T05:08:53.575Z,1.00
2018-01-19T05:09:53.576Z,1.10
2018-01-19T05:10:53.582Z,1.00
2018-01-19T05:11:53.586Z,1.00
2018-01-19T05:12:53.590Z,1.00
2018-01-19T05:13:53.594Z,1.00
2018-01-19T05:14:53.599Z,1.40
2018-01-19T05:15:53.602Z,1.00
2018-01-19T05:16:53.605Z,1.00
2018-01-19T05:17:53.609Z,1.00
2018-01-19T05:18:53.613Z,1.00
2018-01-19T05:19:53.619Z,1.00
2018-01-19T05:20:53.621Z,1.10
2018-01-19T05:21:53.627Z,1.00
2018-01-19T05:22:53.632Z,1.00
2018-01-19T05:23:53.636Z,2.80
2018-01-19T05:24:53.639Z,1.00
2018-01-19T05:25:53.643Z,1.60
2018-01-19T05:26:53.647Z,1.00
2018-01-19T05:27:53.652Z,1.00
2018-01-19T05:28:53.655Z,1.10
2018-01-19T05:29:53.659Z,1.00
2018-01-19T05:30:53.665Z,1.10
2018-01-19T05:31:53.669Z,1.10
2018-01-19T05:32:53.673Z,1.00
2018-01-19T05:33:53.677Z,1.10
2018-01-19T05:34:53.681Z,1.00
2018-01-19T05:35:53.686Z,1.00
2018-01-19T05:36:53.688Z,1.20
2018-01-19T05:37:53.707Z,1.00
2018-01-19T05:38:53.698Z,1.10
2018-01-19T05:39:53.703Z,1.00
2018-01-19T05:40:53.706Z,1.00
2018-01-19T05:41:53.711Z,1.00
2018-01-19T05:42:53.714Z,1.00
2018-01-19T05:43:53.719Z,1.20
2018-01-19T05:44:53.726Z,1.00
2018-01-19T05:45:53.728Z,1.00
2018-01-19T05:46:53.739Z,1.10
2018-01-19T05:47:53.737Z,1.00
2018-01-19T05:48:53.741Z,1.20
2018-01-19T05:49:53.745Z,1.10
2018-01-19T05:50:53.749Z,1.10
2018-01-19T05:51:53.754Z,1.00
2018-01-19T05:52:53.756Z,1.20
2018-01-19T05:53:53.763Z,1.40
2018-01-19T05:54:53.767Z,1.40
2018-01-19T05:55:53.770Z,1.90
2018-01-19T05:56:53.774Z,1.10
2018-01-19T05:57:53.777Z,1.60
2018-01-19T05:58:53.784Z,1.00
2018-01-19T05:59:53.786Z,1.00
2018-01-19T06:00:53.790Z,1.00
2018-01-19T06:01:53.794Z,1.00
2018-01-19T06:02:53.799Z,1.10
2018-01-19T06:03:53.801Z,1.00
2018-01-19T06:04:53.808Z,1.20
2018-01-19T06:05:53.809Z,1.20
2018-01-19T06:06:53.816Z,1.00
2018-01-19T06:07:53.818Z,1.00
2018-01-19T06:08:53.822Z,1.00
2018-01-19T06:09:53.825Z,1.10
2018-01-19T06:10:53.830Z,1.00
2018-01-19T06:11:53.835Z,1.10
2018-01-19T06:12:53.838Z,1.10
2018-01-19T06:13:53.841Z,1.40
2018-01-19T06:14:53.844Z,1.30
2018-01-19T06:15:53.848Z,1.00
2018-01-19T06:16:53.853Z,1.10
2018-01-19T06:17:53.858Z,1.20
2018-01-19T06:18:53.859Z,1.10
2018-01-19T06:19:53.864Z,1.30
2018-01-19T06:20:53.867Z,1.00
2018-01-19T06:21:53.872Z,1.10
2018-01-19T06:22:53.875Z,1.00
2018-01-19T06:23:53.882Z,1.20
2018-01-19T06:24:53.884Z,1.10
2018-01-19T06:25:53.889Z,1.10
2018-01-19T06:26:53.893Z,1.20
2018-01-19T06:27:53.903Z,1.20
2018-01-19T06:28:53.901Z,1.30
2018-01-19T06:29:53.906Z,1.20
2018-01-19T06:30:53.909Z,1.10
2018-01-19T06:31:53.913Z,1.10
2018-01-19T06:32:53.917Z,1.00
2018-01-19T06:33:53.921Z,1.20
2018-01-19T06:34:53.925Z,1.10
2018-01-19T06:35:53.929Z,1.40
2018-01-19T06:36:53.932Z,2.50
2018-01-19T06:37:53.936Z,1.10
2018-01-19T06:38:53.941Z,1.30
2018-01-19T06:39:53.944Z,1.10
2018-01-19T06:40:53.947Z,1.30
2018-01-19T06:41:53.953Z,1.10
2018-01-19T06:42:53.956Z,1.30
2018-01-19T06:43:53.960Z,1.40
2018-01-19T06:44:53.964Z,171.80
2018-01-19T06:45:53.967Z,349.90
2018-01-19T06:46:53.973Z,449.30
2018-01-19T06:47:53.976Z,336.70
2018-01-19T06:48:53.978Z,210.70
2018-01-19T06:49:53.983Z,244.10
2018-01-19T06:50:53.987Z,179.70
2018-01-19T06:51:53.992Z,240.50
2018-01-19T06:52:53.993Z,186.60
2018-01-19T06:53:53.998Z,95.00
2018-01-19T06:54:54.001Z,158.80
2018-01-19T06:55:54.006Z,99.60
2018-01-19T06:56:54.013Z,102.30
2018-01-19T06:57:54.015Z,105.70
2018-01-19T06:58:54.016Z,130.60
2018-01-19T06:59:54.018Z,158.40
2018-01-19T07:00:54.023Z,115.90
2018-01-19T07:01:54.025Z,85.20
2018-01-19T07:02:54.029Z,43.30
2018-01-19T07:03:54.037Z,52.30
2018-01-19T07:04:54.036Z,81.30
2018-01-19T07:05:54.039Z,129.50
2018-01-19T07:06:54.045Z,68.90
2018-01-19T07:07:54.047Z,16.30
2018-01-19T07:08:54.050Z,1.00
2018-01-19T07:09:54.056Z,1.10
2018-01-19T07:10:54.056Z,1.10
2018-01-19T07:11:54.061Z,1.10
2018-01-19T07:12:54.063Z,1.10
2018-01-19T07:13:54.067Z,1.10
2018-01-19T07:14:54.071Z,1.10
2018-01-19T07:15:54.075Z,1.00
2018-01-19T07:16:54.077Z,1.60
2018-01-19T07:17:54.080Z,1.10
2018-01-19T07:18:54.123Z,2.20
2018-01-19T07:19:54.087Z,1.10
2018-01-19T07:20:54.091Z,1.80
2018-01-19T07:21:54.096Z,1.20
2018-01-19T07:22:54.098Z,1.10
2018-01-19T07:23:54.102Z,1.30
2018-01-19T07:24:54.104Z,1.10
2018-01-19T07:25:54.108Z,1.40
2018-01-19T07:26:54.112Z,1.70
2018-01-19T07:27:54.115Z,1.60
2018-01-19T07:28:54.120Z,1.30
2018-01-19T07:29:54.120Z,1.40
2018-01-19T07:30:54.125Z,1.10
2018-01-19T07:31:54.130Z,1.30
2018-01-19T07:32:54.132Z,1.10
2018-01-19T07:33:54.136Z,2.10
2018-01-19T07:34:54.139Z,1.40
2018-01-19T07:35:54.142Z,2.10
2018-01-19T07:36:54.153Z,1.20
2018-01-19T07:37:54.149Z,1.50
2018-01-19T07:38:54.150Z,1.20
2018-01-19T07:39:54.155Z,1.10
2018-01-19T07:40:54.158Z,2.50
2018-01-19T07:41:54.160Z,1.20
2018-01-19T07:42:54.163Z,2.90
2018-01-19T07:43:54.166Z,1.30
2018-01-19T07:44:54.171Z,1.90
2018-01-19T07:45:54.177Z,1.60
2018-01-19T07:46:54.178Z,3.10
2018-01-19T07:47:54.182Z,1.50
2018-01-19T07:48:54.183Z,1.30
2018-01-19T07:49:54.187Z,1.30
2018-01-19T07:50:54.190Z,1.30
2018-01-19T07:51:54.193Z,1.40
2018-01-19T07:52:54.198Z,2.30
2018-01-19T07:53:54.201Z,2.20
2018-01-19T07:54:54.205Z,1.80
2018-01-19T07:55:54.210Z,1.30
2018-01-19T07:56:54.211Z,1.80
2018-01-19T07:57:54.220Z,1.60
2018-01-19T07:58:54.221Z,1.80
2018-01-19T07:59:54.223Z,2.10
2018-01-19T08:00:54.224Z,1.50
2018-01-19T08:01:54.228Z,1.30
2018-01-19T08:02:54.233Z,2.10
2018-01-19T08:03:54.234Z,2.80
2018-01-19T08:04:54.239Z,3.20
2018-01-19T08:05:54.242Z,1.20
2018-01-19T08:06:54.249Z,1.20
2018-01-19T08:07:54.249Z,1.20
2018-01-19T08:08:54.251Z,1.30
2018-01-19T08:09:54.254Z,1.50
2018-01-19T08:10:54.258Z,1.40
2018-01-19T08:11:54.262Z,1.30
2018-01-19T08:12:54.264Z,2.90
2018-01-19T08:13:54.268Z,2.00
2018-01-19T08:14:54.272Z,2.70
2018-01-19T08:15:54.281Z,1.60
2018-01-19T08:16:54.278Z,1.50
2018-01-19T08:17:54.281Z,2.30
2018-01-19T08:18:54.285Z,3.80
2018-01-19T08:19:54.293Z,1.20
2018-01-19T08:20:54.290Z,3.50
2018-01-19T08:21:54.294Z,1.50
2018-01-19T08:22:54.296Z,2.10
2018-01-19T08:23:54.301Z,1.50
2018-01-19T08:24:54.303Z,3.40
2018-01-19T08:25:54.305Z,3.60
2018-01-19T08:26:54.311Z,1.80
2018-01-19T08:27:54.314Z,2.70
2018-01-19T08:28:54.315Z,4.50
2018-01-19T08:29:54.321Z,3.10
2018-01-19T08:30:54.325Z,2.30
2018-01-19T08:31:54.329Z,3.80
2018-01-19T08:32:54.330Z,1.70
2018-01-19T08:33:54.333Z,1.70
2018-01-19T08:34:54.368Z,1.60
2018-01-19T08:35:54.339Z,2.60
2018-01-19T08:36:54.341Z,2.10
2018-01-19T08:37:54.344Z,1.80
2018-01-19T08:38:54.348Z,1.70
2018-01-19T08:39:54.351Z,2.00
2018-01-19T08:40:54.354Z,2.30
2018-01-19T08:41:54.362Z,1.80
2018-01-19T08:42:54.362Z,1.40
2018-01-19T08:43:54.364Z,2.60
2018-01-19T08:44:54.368Z,2.30
2018-01-19T08:45:54.370Z,2.10
2018-01-19T08:46:54.374Z,4.70
2018-01-19T08:47:54.380Z,2.00
2018-01-19T08:48:54.380Z,1.40
2018-01-19T08:49:54.386Z,2.10
2018-01-19T08:50:54.388Z,2.30
2018-01-19T08:51:54.393Z,2.60
2018-01-19T08:52:54.395Z,2.80
2018-01-19T08:53:54.398Z,2.20
2018-01-19T08:54:54.403Z,2.70
2018-01-19T08:55:54.407Z,4.30
2018-01-19T08:56:54.412Z,2.70
2018-01-19T08:57:54.414Z,2.50
2018-01-19T08:58:54.417Z,1.60
2018-01-19T08:59:54.421Z,3.50
2018-01-19T09:00:54.424Z,2.20
2018-01-19T09:01:54.433Z,4.10
2018-01-19T09:02:54.435Z,1.50
2018-01-19T09:03:54.437Z,2.10
2018-01-19T09:04:54.440Z,2.40
2018-01-19T09:05:54.445Z,1.70
2018-01-19T09:06:54.449Z,2.40
2018-01-19T09:07:54.452Z,1.20
2018-01-19T09:08:54.457Z,1.60
2018-01-19T09:09:54.462Z,1.60
2018-01-19T09:10:54.464Z,1.60
2018-01-19T09:11:54.469Z,1.50
2018-01-19T09:12:54.471Z,2.20
2018-01-19T09:13:54.476Z,2.10
2018-01-19T09:14:54.481Z,2.30
2018-01-19T09:15:54.494Z,2.60
2018-01-19T09:16:54.489Z,2.50
2018-01-19T09:17:54.493Z,2.00
2018-01-19T09:18:54.497Z,1.80
2018-01-19T09:19:54.501Z,3.60
2018-01-19T09:20:54.505Z,2.70
2018-01-19T09:21:54.516Z,4.50
2018-01-19T09:22:54.513Z,2.90
2018-01-19T09:23:54.517Z,1.50
2018-01-19T09:24:54.521Z,3.20
2018-01-19T09:25:54.528Z,2.40
2018-01-19T09:26:54.531Z,1.70
2018-01-19T09:27:54.537Z,3.30
2018-01-19T09:28:54.539Z,2.60
2018-01-19T09:29:54.545Z,2.50
2018-01-19T09:30:54.548Z,2.60
2018-01-19T09:31:54.551Z,2.40
2018-01-19T09:32:54.560Z,4.20
2018-01-19T09:33:54.559Z,3.90
2018-01-19T09:34:54.564Z,3.00
2018-01-19T09:35:54.568Z,4.20
2018-01-19T09:36:54.571Z,2.20
2018-01-19T09:37:54.577Z,1.90
2018-01-19T09:38:54.580Z,3.10
2018-01-19T09:39:54.584Z,2.70
2018-01-19T09:40:54.585Z,2.50
2018-01-19T09:41:54.591Z,1.80
2018-01-19T09:42:54.596Z,4.20
2018-01-19T09:43:54.600Z,2.00
2018-01-19T09:44:54.602Z,1.90
2018-01-19T09:45:54.604Z,1.80
2018-01-19T09:46:54.609Z,1.90
2018-01-19T09:47:54.613Z,3.40
2018-01-19T09:48:54.617Z,3.20
2018-01-19T09:49:54.620Z,1.50
2018-01-19T09:50:54.624Z,4.30
2018-01-19T09:51:54.629Z,4.40
2018-01-19T09:52:54.631Z,2.20
2018-01-19T09:53:54.635Z,2.10
2018-01-19T09:54:54.642Z,1.70
2018-01-19T09:55:54.645Z,2.90
2018-01-19T09:56:54.647Z,1.60
2018-01-19T09:57:54.652Z,2.80
2018-01-19T09:58:54.656Z,2.40
2018-01-19T09:59:54.664Z,3.50
2018-01-19T10:00:54.664Z,4.70
2018-01-19T10:01:54.668Z,4.90
2018-01-19T10:02:54.674Z,19.80
2018-01-19T10:03:54.678Z,6.90
2018-01-19T10:04:54.681Z,2.70
2018-01-19T10:05:54.686Z,3.30
2018-01-19T10:06:54.744Z,3.10
2018-01-19T10:07:54.696Z,2.90
2018-01-19T10:08:54.697Z,15.20
2018-01-19T10:09:54.701Z,2.90
2018-01-19T10:10:54.714Z,4.90
2018-01-19T10:11:54.711Z,1.50
2018-01-19T10:12:54.716Z,1.90
2018-01-19T10:13:54.721Z,2.00
2018-01-19T10:14:54.721Z,1.40
2018-01-19T10:15:54.726Z,1.50
2018-01-19T10:16:54.728Z,2.60
2018-01-19T10:17:54.731Z,29.40
2018-01-19T10:18:54.763Z,2.40
2018-01-19T10:19:54.741Z,3.10
2018-01-19T10:20:54.743Z,2.40
2018-01-19T10:21:54.753Z,3.70
2018-01-19T10:22:54.753Z,1.50
2018-01-19T10:23:54.755Z,2.20
2018-01-19T10:24:54.758Z,1.50
2018-01-19T10:25:54.764Z,2.10
2018-01-19T10:26:54.767Z,3.40
2018-01-19T10:27:54.771Z,1.50
2018-01-19T10:28:54.775Z,1.70
2018-01-19T10:29:54.779Z,3.30
2018-01-19T10:30:54.784Z,1.50
2018-01-19T10:31:54.790Z,1.30
2018-01-19T10:32:54.791Z,3.20
2018-01-19T10:33:54.795Z,2.80
2018-01-19T10:34:54.799Z,3.10
2018-01-19T10:35:54.802Z,3.10
2018-01-19T10:36:54.806Z,2.10
2018-01-19T10:37:54.814Z,2.00
2018-01-19T10:38:54.816Z,2.00
2018-01-19T10:39:54.819Z,2.30
2018-01-19T10:40:54.823Z,2.20
2018-01-19T10:41:54.825Z,1.40
2018-01-19T10:42:54.831Z,2.50
2018-01-19T10:43:54.833Z,4.20
2018-01-19T10:44:54.837Z,3.10
2018-01-19T10:45:54.841Z,2.20
2018-01-19T10:46:54.848Z,6.10
2018-01-19T10:47:54.849Z,4.70
2018-01-19T10:48:54.854Z,2.60
2018-01-19T10:49:54.857Z,2.20
2018-01-19T10:50:54.860Z,3.10
2018-01-19T10:51:54.865Z,2.00
2018-01-19T10:52:54.869Z,4.10
2018-01-19T10:53:54.873Z,1.30
2018-01-19T10:54:54.878Z,4.10
2018-01-19T10:55:54.882Z,2.90
2018-01-19T10:56:54.885Z,2.40
2018-01-19T10:57:54.889Z,2.30
2018-01-19T10:58:54.894Z,4.10
2018-01-19T10:59:54.897Z,1.40
2018-01-19T11:00:54.901Z,2.30
2018-01-19T11:01:54.905Z,3.10
2018-01-19T11:02:54.911Z,1.50
2018-01-19T11:03:54.914Z,2.10
2018-01-19T11:04:54.917Z,2.10
2018-01-19T11:05:54.924Z,3.90
2018-01-19T11:06:54.927Z,2.30
2018-01-19T11:07:54.930Z,3.80
2018-01-19T11:08:54.935Z,1.90
2018-01-19T11:09:54.941Z,2.30
2018-01-19T11:10:54.943Z,1.60
2018-01-19T11:11:54.949Z,1.10
2018-01-19T11:12:54.953Z,1.40
2018-01-19T11:13:54.957Z,1.30
2018-01-19T11:14:54.964Z,1.40
2018-01-19T11:15:54.967Z,2.50
2018-01-19T11:16:54.972Z,1.40
2018-01-19T11:17:54.978Z,1.70
2018-01-19T11:18:54.982Z,1.30
2018-01-19T11:19:54.989Z,3.40
2018-01-19T11:20:54.992Z,1.90
2018-01-19T11:21:54.999Z,1.70
2018-01-19T11:22:55.004Z,1.40
2018-01-19T11:23:55.010Z,2.60
2018-01-19T11:24:55.016Z,1.60
2018-01-19T11:25:55.022Z,3.10
2018-01-19T11:26:55.027Z,1.30
2018-01-19T11:27:55.030Z,1.60
2018-01-19T11:28:55.038Z,1.40
2018-01-19T11:29:55.043Z,2.50
2018-01-19T11:30:55.050Z,1.40
2018-01-19T11:31:55.056Z,1.40
2018-01-19T11:32:55.059Z,1.10
2018-01-19T11:33:55.066Z,1.50
2018-01-19T11:34:55.071Z,1.90
2018-01-19T11:35:55.077Z,1.30
2018-01-19T11:36:55.084Z,1.40
2018-01-19T11:37:55.090Z,1.30
2018-01-19T11:38:55.098Z,1.50
2018-01-19T11:39:55.106Z,1.30
2018-01-19T11:40:55.109Z,3.20
2018-01-19T11:41:55.115Z,3.40
2018-01-19T11:42:55.123Z,2.20
2018-01-19T11:43:55.129Z,2.70
2018-01-19T11:44:55.134Z,1.30
2018-01-19T11:45:55.144Z,1.40
2018-01-19T11:46:55.149Z,1.30
2018-01-19T11:47:55.158Z,1.50
2018-01-19T11:48:55.165Z,2.40
2018-01-19T11:49:55.174Z,1.30
2018-01-19T11:50:55.179Z,1.80
2018-01-19T11:51:55.187Z,1.60
2018-01-19T11:52:55.196Z,1.80
2018-01-19T11:53:55.204Z,2.20
2018-01-19T11:54:55.213Z,2.10
2018-01-19T11:55:55.220Z,1.60
2018-01-19T11:56:55.230Z,1.70
2018-01-19T11:57:55.237Z,2.10
2018-01-19T11:58:55.250Z,1.50
2018-01-19T11:59:55.259Z,2.40
2018-01-19T12:00:55.264Z,2.50
2018-01-19T12:01:55.271Z,2.30
2018-01-19T12:02:55.285Z,1.30
2018-01-19T12:03:55.292Z,1.30
2018-01-19T12:04:55.298Z,1.80
2018-01-19T12:05:55.308Z,1.50
2018-01-19T12:06:55.321Z,1.50
2018-01-19T12:07:55.328Z,2.80
2018-01-19T12:08:55.337Z,1.50
2018-01-19T12:09:55.347Z,1.70
2018-01-19T12:10:55.358Z,1.80
2018-01-19T12:11:55.368Z,2.70
2018-01-19T12:12:55.376Z,1.90
2018-01-19T12:13:55.386Z,1.70
2018-01-19T12:14:55.449Z,2.20
2018-01-19T12:15:55.406Z,1.60
2018-01-19T12:16:55.415Z,1.50
2018-01-19T12:17:55.426Z,1.60
2018-01-19T12:18:55.438Z,2.60
2018-01-19T12:19:55.448Z,1.70
2018-01-19T12:20:55.459Z,2.50
2018-01-19T12:21:55.467Z,1.60
2018-01-19T12:22:55.479Z,1.50
2018-01-19T12:23:55.490Z,1.70
2018-01-19T12:24:55.501Z,1.50
2018-01-19T12:25:55.512Z,1.70
2018-01-19T12:26:55.523Z,2.00
2018-01-19T12:27:55.532Z,1.80
2018-01-19T12:28:55.543Z,2.00
2018-01-19T12:29:55.552Z,2.20
2018-01-19T12:30:55.565Z,1.50
2018-01-19T12:31:55.575Z,1.80
2018-01-19T12:32:55.590Z,2.30
2018-01-19T12:33:55.602Z,1.70
2018-01-19T12:34:55.610Z,1.80
2018-01-19T12:35:55.621Z,1.50
2018-01-19T12:36:55.634Z,2.10
2018-01-19T12:37:55.644Z,1.50
2018-01-19T12:38:55.657Z,1.70
2018-01-19T12:39:55.670Z,1.20
2018-01-19T12:40:55.681Z,1.90
2018-01-19T12:41:55.690Z,1.50
2018-01-19T12:42:55.703Z,2.40
2018-01-19T12:43:55.715Z,2.50
2018-01-19T12:44:55.725Z,1.50
2018-01-19T12:45:55.738Z,1.60
2018-01-19T12:46:55.749Z,1.60
2018-01-19T12:47:55.766Z,2.50
2018-01-19T12:48:55.770Z,4.50
2018-01-19T12:49:55.782Z,2.20
2018-01-19T12:50:55.795Z,2.30
2018-01-19T12:51:55.806Z,1.70
2018-01-19T12:52:55.817Z,3.40
2018-01-19T12:53:55.829Z,1.60
2018-01-19T12:54:55.840Z,1.60
2018-01-19T12:55:55.851Z,2.70
2018-01-19T12:56:55.864Z,1.60
2018-01-19T12:57:55.886Z,1.60
2018-01-19T12:58:55.888Z,2.10
2018-01-19T12:59:55.901Z,1.40
2018-01-19T13:00:55.912Z,1.40
2018-01-19T13:01:55.924Z,1.70
2018-01-19T13:02:55.937Z,2.30
2018-01-19T13:03:55.949Z,2.60
2018-01-19T13:04:55.960Z,1.50
2018-01-19T13:05:55.972Z,1.40
2018-01-19T13:06:55.984Z,1.80
2018-01-19T13:07:55.998Z,1.60
2018-01-19T13:08:56.011Z,1.30
2018-01-19T13:09:56.025Z,2.00
2018-01-19T13:10:56.036Z,2.00
2018-01-19T13:11:56.048Z,1.50
2018-01-19T13:12:56.059Z,1.90
2018-01-19T13:13:56.070Z,2.20
2018-01-19T13:14:56.083Z,1.20
2018-01-19T13:15:56.095Z,1.50
2018-01-19T13:16:56.107Z,1.30